createdAt,value
2023-10-10T00:00:06.609Z,102297.59
2023-10-10T00:02:34.282Z,102290.81
2023-10-10T00:05:13.859Z,102282.13
2023-10-10T00:07:46.093Z,102287.56
2023-10-10T00:10:14.974Z,102293.84
2023-10-10T00:12:42.729Z,102301.00
2023-10-10T00:15:21.450Z,102302.91
2023-10-10T00:17:48.586Z,102303.00
2023-10-10T00:20:27.072Z,102295.22
2023-10-10T00:23:00.543Z,102295.22
2023-10-10T00:25:32.611Z,102287.41
2023-10-10T00:28:06.994Z,102284.75
2023-10-10T00:30:37.447Z,102285.41
2023-10-10T00:33:04.631Z,102285.31
2023-10-10T00:35:37.296Z,102263.50
2023-10-10T00:38:07.068Z,102275.88
2023-10-10T00:40:40.126Z,102279.13
2023-10-10T00:43:24.243Z,102273.78
2023-10-10T00:45:56.786Z,102275.69
2023-10-10T00:48:29.826Z,102272.06
2023-10-10T00:51:12.878Z,102266.94
2023-10-10T00:53:47.220Z,102267.88
2023-10-10T00:56:15.355Z,102253.25
2023-10-10T00:58:43.884Z,102253.25
2023-10-10T01:01:15.476Z,102255.91
2023-10-10T01:03:51.037Z,102262.78
2023-10-10T01:06:28.188Z,102268.91
2023-10-10T01:08:59.898Z,102260.22
2023-10-10T01:11:28.291Z,102262.91
2023-10-10T01:13:58.324Z,102258.41
2023-10-10T01:16:27.275Z,102253.47
2023-10-10T01:18:59.445Z,102252.03
2023-10-10T01:21:35.335Z,102247.63
2023-10-10T01:24:09.333Z,102247.25
2023-10-10T01:26:39.724Z,102254.31
2023-10-10T01:29:25.710Z,102258.06
2023-10-10T01:32:00.595Z,102248.41
2023-10-10T01:34:34.914Z,102247.09
2023-10-10T01:37:14.616Z,102237.47
2023-10-10T01:39:53.040Z,102234.53
2023-10-10T01:42:26.021Z,102237.75
2023-10-10T01:44:53.694Z,102235.56
2023-10-10T01:47:27.062Z,102236.41
2023-10-10T01:49:59.905Z,102237.38
2023-10-10T01:52:28.822Z,102230.13
2023-10-10T01:54:55.587Z,102238.88
2023-10-10T01:57:23.486Z,102237.06
2023-10-10T01:59:54.628Z,102228.09
2023-10-10T02:02:27.042Z,102220.28
2023-10-10T02:05:01.654Z,102218.28
2023-10-10T02:07:35.271Z,102220.59
2023-10-10T02:10:05.755Z,102213.06
2023-10-10T02:12:35.154Z,102207.91
2023-10-10T02:15:03.472Z,102210.59
2023-10-10T02:17:31.927Z,102211.91
2023-10-10T02:20:19.251Z,102192.56
2023-10-10T02:22:52.643Z,102216.66
2023-10-10T02:25:29.386Z,102209.81
2023-10-10T02:28:16.121Z,102201.59
2023-10-10T02:30:42.821Z,102207.69
2023-10-10T02:33:24.250Z,102203.78
2023-10-10T02:35:58.343Z,102193.38
2023-10-10T02:38:33.949Z,102185.28
2023-10-10T02:41:21.067Z,102173.94
2023-10-10T02:44:02.682Z,102169.09
2023-10-10T02:46:40.674Z,102176.59
2023-10-10T02:49:23.797Z,102163.19
2023-10-10T02:51:56.987Z,102178.81
2023-10-10T02:54:35.878Z,102154.63
2023-10-10T02:57:40.139Z,102175.78
2023-10-10T03:00:17.485Z,102172.50
2023-10-10T03:02:51.937Z,102176.13
2023-10-10T03:05:41.995Z,102176.84
2023-10-10T03:08:15.752Z,102183.50
2023-10-10T03:10:55.267Z,102176.44
2023-10-10T03:13:30.013Z,102183.19
2023-10-10T03:16:12.496Z,102183.28
2023-10-10T03:18:53.885Z,102171.00
2023-10-10T03:21:37.418Z,102168.72
2023-10-10T03:24:23.519Z,102170.03
2023-10-10T03:27:02.151Z,102168.31
2023-10-10T03:29:48.504Z,102171.66
2023-10-10T03:32:32.517Z,102171.50
2023-10-10T03:35:08.229Z,102158.91
2023-10-10T03:37:42.534Z,102154.78
2023-10-10T03:40:28.387Z,102159.09
2023-10-10T03:43:14.099Z,102153.81
2023-10-10T03:46:06.125Z,102149.84
2023-10-10T03:48:51.414Z,102153.81
2023-10-10T03:51:36.904Z,102168.91
2023-10-10T03:54:24.478Z,102151.94
2023-10-10T03:57:09.831Z,102147.56
2023-10-10T03:59:55.660Z,102141.06
2023-10-10T04:02:41.149Z,102140.88
2023-10-10T04:05:28.201Z,102139.16
2023-10-10T04:08:15.533Z,102139.72
2023-10-10T04:11:06.107Z,102140.97
2023-10-10T04:13:52.296Z,102131.91
2023-10-10T04:16:37.959Z,102128.66
2023-10-10T04:19:23.331Z,102117.13
2023-10-10T04:22:08.968Z,102123.69
2023-10-10T04:24:54.683Z,102108.06
2023-10-10T04:27:40.622Z,102105.50
2023-10-10T04:30:26.841Z,102107.03
2023-10-10T04:33:12.520Z,102098.06
2023-10-10T04:35:58.690Z,102088.53
2023-10-10T04:38:47.275Z,102089.50
2023-10-10T04:41:33.112Z,102082.44
2023-10-10T04:44:19.692Z,102084.25
2023-10-10T04:47:07.325Z,102075.59
2023-10-10T04:49:52.816Z,102080.94
2023-10-10T04:52:38.173Z,102081.28
2023-10-10T04:55:25.278Z,102079.78
2023-10-10T04:58:10.573Z,102069.75
2023-10-10T05:00:55.909Z,102071.75
2023-10-10T05:03:41.548Z,102062.69
2023-10-10T05:06:26.965Z,102062.44
2023-10-10T05:09:12.489Z,102065.88
2023-10-10T05:12:06.048Z,102059.47
2023-10-10T05:14:51.845Z,102069.28
2023-10-10T05:17:40.532Z,102067.38
2023-10-10T05:20:26.939Z,102060.44
2023-10-10T05:23:12.403Z,102064.16
2023-10-10T05:25:39.197Z,102060.44
2023-10-10T05:28:06.682Z,102054.53
2023-10-10T05:30:45.319Z,102043.56
2023-10-10T05:33:14.393Z,102046.97
2023-10-10T05:35:50.791Z,102043.06
2023-10-10T05:38:18.331Z,102037.81
2023-10-10T05:40:48.671Z,102037.06
2023-10-10T05:43:18.962Z,102029.25
2023-10-10T05:45:47.035Z,102035.25
2023-10-10T05:48:14.417Z,102023.25
2023-10-10T05:50:45.209Z,102042.41
2023-10-10T05:53:12.471Z,102037.81
2023-10-10T05:55:39.722Z,102036.00
2023-10-10T05:58:06.973Z,102047.63
2023-10-10T06:00:45.953Z,102048.91
2023-10-10T06:03:16.011Z,102052.72
2023-10-10T06:05:47.836Z,102057.41
2023-10-10T06:08:46.904Z,102050.25
2023-10-10T06:11:25.186Z,102055.03
2023-10-10T06:13:55.499Z,102055.03
2023-10-10T06:16:26.168Z,102042.66
2023-10-10T06:18:54.338Z,102043.25
2023-10-10T06:21:22.515Z,102049.91
2023-10-10T06:24:05.439Z,102058.47
2023-10-10T06:26:34.374Z,102054.19
2023-10-10T06:29:03.651Z,102049.59
2023-10-10T06:31:36.019Z,102043.03
2023-10-10T06:34:21.852Z,102047.97
2023-10-10T06:36:50.954Z,102059.41
2023-10-10T06:39:18.026Z,102050.44
2023-10-10T06:41:53.008Z,102037.88
2023-10-10T06:44:41.437Z,102043.97
2023-10-10T06:47:16.082Z,102032.44
2023-10-10T06:49:48.367Z,102016.63
2023-10-10T06:52:23.809Z,102023.47
2023-10-10T06:54:57.909Z,102026.22
2023-10-10T06:57:45.739Z,102035.44
2023-10-10T07:00:18.192Z,102031.91
2023-10-10T07:02:50.466Z,102034.38
2023-10-10T07:05:21.122Z,102029.06
2023-10-10T07:07:59.913Z,102018.47
2023-10-10T07:10:37.380Z,102019.44
2023-10-10T07:13:11.853Z,102021.25
2023-10-10T07:15:44.204Z,102034.19
2023-10-10T07:18:23.790Z,102036.66
2023-10-10T07:21:17.855Z,102020.53
2023-10-10T07:24:06.436Z,102009.22
2023-10-10T07:26:43.021Z,102027.13
2023-10-10T07:29:32.015Z,102018.03
2023-10-10T07:32:29.552Z,102020.41
2023-10-10T07:34:57.922Z,102011.53
2023-10-10T07:37:29.270Z,102016.34
2023-10-10T07:39:57.884Z,102030.25
2023-10-10T07:42:31.471Z,102022.03
2023-10-10T07:45:00.293Z,102017.44
2023-10-10T07:47:28.750Z,102004.09
2023-10-10T07:50:10.407Z,102021.97
2023-10-10T07:52:40.668Z,102008.50
2023-10-10T07:55:08.527Z,102002.41
2023-10-10T07:57:57.293Z,102016.72
2023-10-10T08:00:37.322Z,102018.75
2023-10-10T08:03:07.170Z,102021.47
2023-10-10T08:05:35.305Z,102012.50
2023-10-10T08:08:06.876Z,102031.47
2023-10-10T08:10:41.617Z,102044.59
2023-10-10T08:13:11.528Z,102025.38
2023-10-10T08:15:58.802Z,102036.28
2023-10-10T08:18:53.721Z,102019.47
2023-10-10T08:21:24.500Z,102029.31
2023-10-10T08:23:58.238Z,102031.78
2023-10-10T08:26:30.688Z,102026.00
2023-10-10T08:28:58.622Z,102022.78
2023-10-10T08:31:26.785Z,102017.31
2023-10-10T08:33:53.877Z,102017.84
2023-10-10T08:36:31.125Z,102003.94
2023-10-10T08:39:22.142Z,102019.88
2023-10-10T08:41:49.414Z,102000.50
2023-10-10T08:44:19.254Z,102006.72
2023-10-10T08:46:50.227Z,102009.38
2023-10-10T08:49:18.398Z,102004.44
2023-10-10T08:51:46.802Z,102004.00
2023-10-10T08:54:17.833Z,101985.38
2023-10-10T08:57:06.839Z,101991.03
2023-10-10T08:59:35.041Z,101988.78
2023-10-10T09:02:17.935Z,101995.13
2023-10-10T09:04:45.729Z,101990.63
2023-10-10T09:07:24.747Z,102007.72
2023-10-10T09:10:07.974Z,102006.28
2023-10-10T09:12:54.696Z,102007.25
2023-10-10T09:15:22.412Z,101998.19
2023-10-10T09:17:51.696Z,101992.06
2023-10-10T09:20:31.995Z,101997.81
2023-10-10T09:23:06.220Z,101996.66
2023-10-10T09:25:43.993Z,102001.78
2023-10-10T09:28:18.624Z,101989.34
2023-10-10T09:31:00.961Z,101978.19
2023-10-10T09:33:29.354Z,101994.31
2023-10-10T09:36:17.526Z,101983.66
2023-10-10T09:38:48.230Z,101991.25
2023-10-10T09:41:38.352Z,101981.88
2023-10-10T09:44:26.525Z,101985.59
2023-10-10T09:47:03.170Z,101989.66
2023-10-10T09:49:56.189Z,101982.50
2023-10-10T09:52:44.090Z,101984.75
2023-10-10T09:55:16.589Z,101989.88
2023-10-10T09:58:07.074Z,101987.78
2023-10-10T10:00:39.631Z,101983.53
2023-10-10T10:03:28.651Z,101991.81
2023-10-10T10:06:26.768Z,102001.81
2023-10-10T10:09:10.705Z,101996.69
2023-10-10T10:12:10.549Z,101996.69
2023-10-10T10:14:47.957Z,101992.06
2023-10-10T10:17:48.834Z,101989.38
2023-10-10T10:20:36.096Z,101991.94
2023-10-10T10:23:03.916Z,101998.28
2023-10-10T10:25:36.468Z,101994.75
2023-10-10T10:28:14.806Z,101988.28
2023-10-10T10:30:48.917Z,101977.78
2023-10-10T10:33:20.603Z,101987.66
2023-10-10T10:36:08.346Z,101983.63
2023-10-10T10:38:35.650Z,101988.38
2023-10-10T10:41:20.084Z,101980.53
2023-10-10T10:43:51.813Z,101978.94
2023-10-10T10:46:29.517Z,101975.91
2023-10-10T10:49:11.089Z,101973.03
2023-10-10T10:51:44.104Z,101971.81
2023-10-10T10:54:31.430Z,101970.81
2023-10-10T10:57:04.274Z,101965.78
2023-10-10T10:59:37.984Z,101979.28
2023-10-10T11:02:15.575Z,101968.00
2023-10-10T11:04:54.438Z,101969.44
2023-10-10T11:07:31.719Z,101956.41
2023-10-10T11:10:09.347Z,101956.25
2023-10-10T11:12:38.504Z,101960.66
2023-10-10T11:15:12.039Z,101952.72
2023-10-10T11:17:40.851Z,101952.25
2023-10-10T11:20:27.809Z,101958.88
2023-10-10T11:23:01.716Z,101946.25
2023-10-10T11:25:44.830Z,101941.78
2023-10-10T11:28:27.035Z,101937.84
2023-10-10T11:30:59.835Z,101937.78
2023-10-10T11:33:58.024Z,101933.44
2023-10-10T11:36:30.963Z,101928.00
2023-10-10T11:39:16.079Z,101931.66
2023-10-10T11:41:43.844Z,101932.53
2023-10-10T11:44:10.673Z,101929.34
2023-10-10T11:46:40.295Z,101922.56
2023-10-10T11:49:16.740Z,101921.63
2023-10-10T11:51:48.727Z,101924.47
2023-10-10T11:54:15.969Z,101911.56
2023-10-10T11:56:47.694Z,101913.16
2023-10-10T11:59:15.640Z,101896.41
2023-10-10T12:01:51.231Z,101912.16
2023-10-10T12:04:22.922Z,101897.13
2023-10-10T12:06:49.740Z,101901.84
2023-10-10T12:09:20.889Z,101891.09
2023-10-10T12:11:48.618Z,101907.13
2023-10-10T12:14:20.664Z,101910.81
2023-10-10T12:16:51.800Z,101913.63
2023-10-10T12:19:20.559Z,101905.84
2023-10-10T12:21:48.003Z,101891.66
2023-10-10T12:24:15.862Z,101897.63
2023-10-10T12:26:43.554Z,101888.28
2023-10-10T12:29:15.615Z,101893.94
2023-10-10T12:31:43.349Z,101896.81
2023-10-10T12:34:10.822Z,101891.28
2023-10-10T12:36:42.005Z,101892.16
2023-10-10T12:39:16.412Z,101880.94
2023-10-10T12:41:48.305Z,101882.06
2023-10-10T12:44:16.200Z,101875.00
2023-10-10T12:46:45.210Z,101886.59
2023-10-10T12:49:13.392Z,101872.72
2023-10-10T12:51:40.760Z,101860.25
2023-10-10T12:54:15.657Z,101876.97
2023-10-10T12:56:56.655Z,101879.97
2023-10-10T12:59:33.066Z,101888.03
2023-10-10T13:02:04.898Z,101876.50
2023-10-10T13:04:35.705Z,101885.34
2023-10-10T13:07:08.707Z,101873.97
2023-10-10T13:09:44.539Z,101869.16
2023-10-10T13:12:31.157Z,101873.41
2023-10-10T13:15:17.694Z,101874.56
2023-10-10T13:17:55.143Z,101866.34
2023-10-10T13:20:23.831Z,101869.16
2023-10-10T13:22:51.972Z,101879.94
2023-10-10T13:25:20.514Z,101884.06
2023-10-10T13:27:49.682Z,101870.59
2023-10-10T13:30:21.380Z,101871.59
2023-10-10T13:32:49.199Z,101877.81
2023-10-10T13:35:17.694Z,101873.84
2023-10-10T13:37:45.159Z,101874.84
2023-10-10T13:40:22.657Z,101882.38
2023-10-10T13:42:50.893Z,101869.72
2023-10-10T13:45:23.586Z,101876.13
2023-10-10T13:47:54.400Z,101864.38
2023-10-10T13:50:42.970Z,101853.84
2023-10-10T13:53:14.731Z,101864.63
2023-10-10T13:55:46.506Z,101868.31
2023-10-10T13:58:17.237Z,101863.63
2023-10-10T14:01:00.997Z,101853.28
2023-10-10T14:03:36.577Z,101853.56
2023-10-10T14:06:21.112Z,101866.03
2023-10-10T14:08:53.640Z,101868.75
2023-10-10T14:11:25.210Z,101868.75
2023-10-10T14:13:56.553Z,101860.81
2023-10-10T14:16:24.952Z,101855.16
2023-10-10T14:19:06.604Z,101843.38
2023-10-10T14:21:34.713Z,101825.53
2023-10-10T14:24:09.534Z,101840.69
2023-10-10T14:26:37.927Z,101834.88
2023-10-10T14:29:08.364Z,101825.50
2023-10-10T14:31:49.907Z,101828.19
2023-10-10T14:34:21.896Z,101831.03
2023-10-10T14:36:53.546Z,101821.81
2023-10-10T14:39:46.659Z,101814.16
2023-10-10T14:42:18.535Z,101819.41
2023-10-10T14:44:47.062Z,101813.16
2023-10-10T14:47:22.438Z,101807.94
2023-10-10T14:49:58.736Z,101801.97
2023-10-10T14:52:26.050Z,101790.50
2023-10-10T14:54:53.600Z,101788.78
2023-10-10T14:57:26.813Z,101779.31
2023-10-10T14:59:57.691Z,101769.41
2023-10-10T15:02:29.133Z,101777.91
2023-10-10T15:05:04.531Z,101771.09
2023-10-10T15:07:34.795Z,101763.72
2023-10-10T15:10:05.717Z,101763.00
2023-10-10T15:12:34.715Z,101757.88
2023-10-10T15:15:02.180Z,101763.13
2023-10-10T15:17:33.837Z,101767.63
2023-10-10T15:20:02.822Z,101761.97
2023-10-10T15:22:30.674Z,101763.94
2023-10-10T15:25:02.659Z,101747.38
2023-10-10T15:27:30.692Z,101743.56
2023-10-10T15:29:57.738Z,101757.44
2023-10-10T15:32:42.493Z,101759.44
2023-10-10T15:35:16.136Z,101763.56
2023-10-10T15:37:56.517Z,101755.78
2023-10-10T15:40:24.371Z,101743.44
2023-10-10T15:42:59.983Z,101748.41
2023-10-10T15:45:27.235Z,101744.72
2023-10-10T15:47:55.455Z,101754.91
2023-10-10T15:50:24.069Z,101742.56
2023-10-10T15:52:51.442Z,101747.13
2023-10-10T15:55:28.047Z,101757.16
2023-10-10T15:57:57.849Z,101755.75
2023-10-10T16:00:34.678Z,101743.00
2023-10-10T16:03:07.833Z,101732.94
2023-10-10T16:05:44.776Z,101735.34
2023-10-10T16:08:12.418Z,101744.97
2023-10-10T16:10:42.842Z,101740.31
2023-10-10T16:13:10.563Z,101734.91
2023-10-10T16:15:38.245Z,101743.97
2023-10-10T16:18:10.532Z,101735.56
2023-10-10T16:20:38.031Z,101731.00
2023-10-10T16:23:10.609Z,101742.88
2023-10-10T16:25:39.372Z,101742.03
2023-10-10T16:28:07.265Z,101731.41
2023-10-10T16:30:43.700Z,101726.59
2023-10-10T16:33:11.343Z,101721.34
2023-10-10T16:35:47.993Z,101729.81
2023-10-10T16:38:23.543Z,101712.25
2023-10-10T16:40:52.105Z,101720.75
2023-10-10T16:43:19.700Z,101721.88
2023-10-10T16:45:50.688Z,101714.94
2023-10-10T16:48:18.200Z,101708.88
2023-10-10T16:50:45.574Z,101710.13
2023-10-10T16:53:15.067Z,101707.13
2023-10-10T16:55:45.220Z,101708.41
2023-10-10T16:58:16.360Z,101706.97
2023-10-10T17:00:50.126Z,101705.41
2023-10-10T17:03:17.389Z,101699.59
2023-10-10T17:05:51.868Z,101702.69
2023-10-10T17:08:20.922Z,101705.03
2023-10-10T17:10:55.669Z,101700.91
2023-10-10T17:13:30.336Z,101699.34
2023-10-10T17:16:07.340Z,101693.53
2023-10-10T17:18:35.477Z,101679.44
2023-10-10T17:21:06.943Z,101691.50
2023-10-10T17:23:37.115Z,101680.81
2023-10-10T17:26:08.636Z,101680.28
2023-10-10T17:28:40.727Z,101684.34
2023-10-10T17:31:09.522Z,101681.53
2023-10-10T17:33:45.581Z,101673.88
2023-10-10T17:36:15.072Z,101672.31
2023-10-10T17:39:06.627Z,101681.22
2023-10-10T17:41:36.441Z,101671.47
2023-10-10T17:44:12.473Z,101670.03
2023-10-10T17:46:40.419Z,101669.19
2023-10-10T17:49:10.743Z,101675.41
2023-10-10T17:51:40.257Z,101665.91
2023-10-10T17:54:10.928Z,101654.28
2023-10-10T17:56:46.114Z,101649.94
2023-10-10T17:59:14.267Z,101650.91
2023-10-10T18:01:43.409Z,101652.22
2023-10-10T18:04:11.555Z,101643.31
2023-10-10T18:06:38.830Z,101655.63
2023-10-10T18:09:10.161Z,101656.59
2023-10-10T18:11:37.925Z,101649.94
2023-10-10T18:14:08.445Z,101648.56
2023-10-10T18:16:40.212Z,101640.19
2023-10-10T18:19:07.311Z,101636.34
2023-10-10T18:21:34.936Z,101640.50
2023-10-10T18:24:07.848Z,101636.88
2023-10-10T18:26:40.700Z,101635.63
2023-10-10T18:29:10.312Z,101630.75
2023-10-10T18:31:43.214Z,101639.06
2023-10-10T18:34:18.805Z,101632.97
2023-10-10T18:36:49.467Z,101618.13
2023-10-10T18:39:19.756Z,101629.19
2023-10-10T18:41:47.600Z,101630.56
2023-10-10T18:44:17.188Z,101627.03
2023-10-10T18:46:52.610Z,101623.22
2023-10-10T18:49:23.238Z,101620.41
2023-10-10T18:51:55.545Z,101612.38
2023-10-10T18:54:22.415Z,101613.34
2023-10-10T18:56:51.101Z,101607.22
2023-10-10T18:59:22.525Z,101611.59
2023-10-10T19:01:50.290Z,101612.31
2023-10-10T19:04:20.527Z,101611.78
2023-10-10T19:06:51.540Z,101607.66
2023-10-10T19:09:19.608Z,101609.88
2023-10-10T19:11:46.859Z,101612.50
2023-10-10T19:14:14.896Z,101619.63
2023-10-10T19:16:48.685Z,101612.09
2023-10-10T19:19:29.752Z,101607.84
2023-10-10T19:21:58.377Z,101608.06
2023-10-10T19:24:30.580Z,101607.66
2023-10-10T19:26:58.368Z,101589.16
2023-10-10T19:29:30.844Z,101595.94
2023-10-10T19:32:00.709Z,101578.06
2023-10-10T19:34:30.718Z,101603.81
2023-10-10T19:37:00.068Z,101586.19
2023-10-10T19:39:29.441Z,101591.75
2023-10-10T19:41:59.017Z,101585.09
2023-10-10T19:44:28.299Z,101592.16
2023-10-10T19:46:56.337Z,101582.66
2023-10-10T19:49:23.877Z,101579.97
2023-10-10T19:51:51.220Z,101582.06
2023-10-10T19:54:19.058Z,101587.44
2023-10-10T19:56:49.791Z,101591.38
2023-10-10T19:59:20.753Z,101577.91
2023-10-10T20:01:49.713Z,101595.69
2023-10-10T20:04:20.608Z,101567.50
2023-10-10T20:06:52.209Z,101582.63
2023-10-10T20:09:24.347Z,101587.25
2023-10-10T20:11:55.633Z,101576.31
2023-10-10T20:14:32.031Z,101578.13
2023-10-10T20:17:02.866Z,101578.41
2023-10-10T20:19:30.253Z,101587.53
2023-10-10T20:21:58.807Z,101577.06
2023-10-10T20:24:27.298Z,101586.44
2023-10-10T20:26:58.155Z,101580.50
2023-10-10T20:29:28.225Z,101574.28
2023-10-10T20:31:56.026Z,101573.56
2023-10-10T20:34:25.272Z,101555.88
2023-10-10T20:36:53.300Z,101562.94
2023-10-10T20:39:24.130Z,101576.47
2023-10-10T20:41:51.473Z,101571.38
2023-10-10T20:44:19.729Z,101570.31
2023-10-10T20:46:50.616Z,101558.34
2023-10-10T20:49:20.313Z,101567.25
2023-10-10T20:51:55.860Z,101570.78
2023-10-10T20:54:24.150Z,101559.59
2023-10-10T20:56:53.758Z,101580.69
2023-10-10T20:59:28.369Z,101568.41
2023-10-10T21:01:58.638Z,101578.28
2023-10-10T21:04:26.282Z,101581.81
2023-10-10T21:06:53.253Z,101569.38
2023-10-10T21:09:21.379Z,101589.59
2023-10-10T21:11:49.077Z,101585.78
2023-10-10T21:14:17.122Z,101583.38
2023-10-10T21:16:47.404Z,101582.06
2023-10-10T21:19:15.099Z,101575.66
2023-10-10T21:21:42.789Z,101580.91
2023-10-10T21:24:14.186Z,101575.53
2023-10-10T21:26:41.254Z,101587.38
2023-10-10T21:29:08.618Z,101583.84
2023-10-10T21:31:38.057Z,101586.06
2023-10-10T21:34:06.042Z,101574.53
2023-10-10T21:36:34.060Z,101585.59
2023-10-10T21:39:00.941Z,101587.28
2023-10-10T21:41:30.702Z,101574.03
2023-10-10T21:43:57.650Z,101571.47
2023-10-10T21:46:24.886Z,101564.53
2023-10-10T21:48:53.064Z,101567.72
2023-10-10T21:51:19.994Z,101570.16
2023-10-10T21:53:48.653Z,101572.63
2023-10-10T21:56:17.651Z,101579.28
2023-10-10T21:58:48.673Z,101577.00
2023-10-10T22:01:18.258Z,101571.63
2023-10-10T22:03:48.130Z,101582.22
2023-10-10T22:06:17.291Z,101573.84
2023-10-10T22:08:48.295Z,101576.88
2023-10-10T22:11:15.921Z,101569.81
2023-10-10T22:13:49.697Z,101562.41
2023-10-10T22:16:19.977Z,101564.72
2023-10-10T22:18:48.973Z,101559.59
2023-10-10T22:21:15.968Z,101568.16
2023-10-10T22:23:44.196Z,101549.66
2023-10-10T22:26:13.544Z,101559.13
2023-10-10T22:28:40.575Z,101557.91
2023-10-10T22:31:16.384Z,101556.34
2023-10-10T22:33:46.297Z,101542.34
2023-10-10T22:36:16.347Z,101535.91
2023-10-10T22:38:47.357Z,101568.41
2023-10-10T22:41:15.727Z,101559.03
2023-10-10T22:43:43.184Z,101551.13
2023-10-10T22:46:11.343Z,101555.13
2023-10-10T22:48:38.563Z,101561.13
2023-10-10T22:51:07.041Z,101555.13
2023-10-10T22:53:34.097Z,101548.94
2023-10-10T22:56:01.601Z,101549.06
2023-10-10T22:58:29.513Z,101536.16
2023-10-10T23:00:58.435Z,101540.66
2023-10-10T23:03:25.518Z,101547.22
2023-10-10T23:05:52.752Z,101548.19
2023-10-10T23:08:23.530Z,101540.56
2023-10-10T23:10:50.691Z,101538.00
2023-10-10T23:13:17.845Z,101536.41
2023-10-10T23:15:49.573Z,101522.09
2023-10-10T23:18:20.650Z,101527.19
2023-10-10T23:20:48.271Z,101523.66
2023-10-10T23:23:17.572Z,101526.59
2023-10-10T23:25:48.506Z,101529.28
2023-10-10T23:28:18.886Z,101522.31
2023-10-10T23:30:45.838Z,101524.75
2023-10-10T23:33:14.621Z,101537.16
2023-10-10T23:35:42.868Z,101526.47
2023-10-10T23:38:10.737Z,101513.94
2023-10-10T23:40:47.546Z,101516.09
2023-10-10T23:43:22.900Z,101528.63
2023-10-10T23:46:00.172Z,101527.19
2023-10-10T23:48:33.236Z,101526.59
2023-10-10T23:51:00.689Z,101527.66
2023-10-10T23:53:27.942Z,101524.75
2023-10-10T23:55:56.526Z,101528.41
2023-10-10T23:58:27.055Z,101531.69
